Flight Track Log - Related Links

Times and Time Zones

All times are in EDT time to prevent confusion due to time zone crossing. See the CSN6815 flight status page for this flight to view local times or setup timezone preferences in your user account.

Time Position Orientation Groundspeed Altitude Reporting Facility
EDT Latitude Longitude Course Direction KTS MPH feet Rate Location/Type
08:17AM 43.3799 86.8084 223° Southwest  Level Estimated
08:18AM 43.3043 86.7142 222° Southwest  Level Estimated
08:19AM 43.2286 86.6203 222° Southwest  Level Estimated
08:20AM 43.1528 86.5266 222° Southwest  Level Estimated
08:21AM 43.0770 86.4331 222° Southwest  Level Estimated
08:22AM 43.0011 86.3399 222° Southwest  Level Estimated
08:23AM 42.9251 86.2469 222° Southwest  Level Estimated
08:24AM 42.8490 86.1541 222° Southwest  Level Estimated
08:25AM 42.7728 86.0616 222° Southwest  Level Estimated
08:26AM 42.6966 85.9692 222° Southwest  Level Estimated
08:27AM 42.6203 85.8771 222° Southwest  Level Estimated
08:28AM 42.5439 85.7853 222° Southwest  Level Estimated
08:29AM 42.4675 85.6936 222° Southwest  Level Estimated
08:30AM 42.3909 85.6022 221° Southwest  Level Estimated
08:31AM 42.3144 85.5110 221° Southwest  Level Estimated
08:32AM 42.2377 85.4200 221° Southwest  Level Estimated
08:33AM 42.1609 85.3293 221° Southwest  Level Estimated
08:34AM 42.0841 85.2387 221° Southwest  Level Estimated
08:35AM 42.0073 85.1484 221° Southwest  Level Estimated
08:36AM 41.9303 85.0583 221° Southwest  Level Estimated
08:37AM 41.8533 84.9684 221° Southwest  Level Estimated
08:38AM 41.7762 84.8788 221° Southwest  Level Estimated
08:39AM 41.6990 84.7893 221° Southwest  Level Estimated
08:40AM 41.6218 84.7001 221° Southwest  Level Estimated
08:41AM 41.5445 84.6111 221° Southwest  Level Estimated
08:42AM 41.4672 84.5222 221° Southwest  Level Estimated
08:43AM 41.3897 84.4336 221° Southwest  Level Estimated
08:44AM 41.3122 84.3453 221° Southwest  Level Estimated
08:45AM 41.2346 84.2571 221° Southwest  Level Estimated
08:46AM 41.1570 84.1691 220° Southwest  Level Estimated
08:47AM 41.0793 84.0813 220° Southwest  Level Estimated
08:48AM 41.0015 83.9938 220° Southwest  Level Estimated
08:49AM 40.9237 83.9064 220° Southwest  Level Estimated
08:50AM 40.8458 83.8193 220° Southwest  Level Estimated
08:51AM 40.7678 83.7324 220° Southwest  Level Estimated
08:52AM 40.6898 83.6456 220° Southwest  Level Estimated
08:53AM 40.6117 83.5591 220° Southwest  Level Estimated
08:54AM 40.5335 83.4728 220° Southwest  Level Estimated
08:55AM 40.4553 83.3866 220° Southwest  Level Estimated
08:56AM 40.3770 83.3007 220° Southwest  Level Estimated
08:57AM 40.2987 83.2150 220° Southwest  Level Estimated
08:58AM 40.2202 83.1295 220° Southwest  Level Estimated
08:59AM 40.1418 83.0441 220° Southwest  Level Estimated
09:00AM 40.0632 82.9590 220° Southwest  Level Estimated
09:01AM 39.9846 82.8741 220° Southwest  Level Estimated
09:02AM 39.9059 82.7893 220° Southwest  Level Estimated
09:03AM 39.8272 82.7048 220° Southwest  Level Estimated
09:04AM 39.7484 82.6204 219° Southwest  Level Estimated
09:05AM 39.6696 82.5363 219° Southwest  Level Estimated
09:06AM 39.5907 82.4523 219° Southwest  Level Estimated
09:07AM 39.5117 82.3685 219° Southwest  Level Estimated
09:08AM 39.4327 82.2849 219° Southwest  Level Estimated
09:09AM 39.3536 82.2015 219° Southwest  Level Estimated
09:10AM 39.2744 82.1183 219° Southwest  Level Estimated
09:11AM 39.1952 82.0353 219° Southwest  Level Estimated
09:12AM 39.1160 81.9525 219° Southwest  Level Estimated
09:13AM 39.0366 81.8698 219° Southwest  Level Estimated
09:14AM 38.9572 81.7874 219° Southwest  Level Estimated
09:15AM 38.8778 81.7051 219° Southwest  Level Estimated
09:16AM 38.7983 81.6230 219° Southwest  Level Estimated
09:17AM 38.7188 81.5411 219° Southwest  Level Estimated
09:18AM 38.6391 81.4593 219° Southwest  Level Estimated
09:19AM 38.5595 81.3778 219° Southwest  Level Estimated
09:20AM 38.4797 81.2964 219° Southwest  Level Estimated
09:21AM 38.3999 81.2152 219° Southwest  Level Estimated
09:22AM 38.3201 81.1342 219° Southwest  Level Estimated
09:23AM 38.2402 81.0534 218° Southwest  Level Estimated
09:24AM 38.1603 80.9727 218° Southwest  Level Estimated
09:25AM 38.0803 80.8923 218° Southwest  Level Estimated
09:26AM 38.0002 80.8120 218° Southwest  Level Estimated
09:27AM 37.9201 80.7318 218° Southwest  Level Estimated
09:28AM 37.8399 80.6519 218° Southwest  Level Estimated
09:29AM 37.7597 80.5721 218° Southwest  Level Estimated
09:30AM 37.6794 80.4925 218° Southwest  Level Estimated
09:31AM 37.5991 80.4131 218° Southwest  Level Estimated
09:32AM 37.5187 80.3338 218° Southwest  Level Estimated
09:33AM 37.4383 80.2547 218° Southwest  Level Estimated
09:34AM 37.3578 80.1758 218° Southwest  Level Estimated
09:35AM 37.2772 80.0971 218° Southwest  Level Estimated
09:36AM 37.1967 80.0185 218° Southwest  Level Estimated
09:37AM 37.1160 79.9401 218° Southwest  Level Estimated
09:38AM 37.0385 79.8649 218° Southwest  Level Estimated
09:39AM 37.0385 79.8649 North  Level Estimated
09:40AM 37.0385 79.8649 North  Level Estimated
09:41AM 37.0385 79.8649 North  Level Estimated
09:42AM 37.0385 79.8649 North  Level Estimated
09:43AM 37.0385 79.8649 North  Level Estimated
09:44AM 37.0385 79.8649 North  Level Estimated
09:45AM 37.0385 79.8649 North  Level Estimated
09:46AM 37.0385 79.8649 North  Level Estimated

Login

Don't have an account? Register now (free) for customized features, flight alerts, and more!